sensor_id;sensor_type;location;lat;lon;timestamp;P1;P2;P0
76661;PMS5003;65579;45.534;6.212;2023-04-09T00:02:08;9;9;
76661;PMS5003;65579;45.534;6.212;2023-04-09T00:04:33;9;8;
76661;PMS5003;65579;45.534;6.212;2023-04-09T00:06:58;8;8;
76661;PMS5003;65579;45.534;6.212;2023-04-09T00:09:24;6;6;
76661;PMS5003;65579;45.534;6.212;2023-04-09T00:11:49;9;7;
76661;PMS5003;65579;45.534;6.212;2023-04-09T00:14:14;10;8;
76661;PMS5003;65579;45.534;6.212;2023-04-09T00:16:40;7;7;
76661;PMS5003;65579;45.534;6.212;2023-04-09T00:19:05;8;7;
76661;PMS5003;65579;45.534;6.212;2023-04-09T00:21:30;7;7;
76661;PMS5003;65579;45.534;6.212;2023-04-09T00:23:56;7;7;
76661;PMS5003;65579;45.534;6.212;2023-04-09T00:26:21;7;7;
76661;PMS5003;65579;45.534;6.212;2023-04-09T00:28:46;6;6;
76661;PMS5003;65579;45.534;6.212;2023-04-09T00:31:11;11;11;
76661;PMS5003;65579;45.534;6.212;2023-04-09T00:33:37;10;10;
76661;PMS5003;65579;45.534;6.212;2023-04-09T00:36:02;10;10;
76661;PMS5003;65579;45.534;6.212;2023-04-09T00:38:28;8;8;
76661;PMS5003;65579;45.534;6.212;2023-04-09T00:40:53;11;11;
76661;PMS5003;65579;45.534;6.212;2023-04-09T00:43:18;12;10;
76661;PMS5003;65579;45.534;6.212;2023-04-09T00:45:43;10;10;
76661;PMS5003;65579;45.534;6.212;2023-04-09T00:48:09;11;10;
76661;PMS5003;65579;45.534;6.212;2023-04-09T00:50:35;6;6;
76661;PMS5003;65579;45.534;6.212;2023-04-09T00:53:00;6;6;
76661;PMS5003;65579;45.534;6.212;2023-04-09T00:55:25;10;8;
76661;PMS5003;65579;45.534;6.212;2023-04-09T00:57:51;9;9;
76661;PMS5003;65579;45.534;6.212;2023-04-09T01:00:16;12;10;
76661;PMS5003;65579;45.534;6.212;2023-04-09T01:02:41;16;14;
76661;PMS5003;65579;45.534;6.212;2023-04-09T01:05:08;11;11;
76661;PMS5003;65579;45.534;6.212;2023-04-09T01:07:35;12;10;
76661;PMS5003;65579;45.534;6.212;2023-04-09T01:09:59;14;11;
76661;PMS5003;65579;45.534;6.212;2023-04-09T01:12:25;12;12;
76661;PMS5003;65579;45.534;6.212;2023-04-09T01:14:52;16;16;
76661;PMS5003;65579;45.534;6.212;2023-04-09T01:17:15;34;28;
76661;PMS5003;65579;45.534;6.212;2023-04-09T01:19:41;26;24;
76661;PMS5003;65579;45.534;6.212;2023-04-09T01:22:07;24;20;
76661;PMS5003;65579;45.534;6.212;2023-04-09T01:24:35;21;18;
76661;PMS5003;65579;45.534;6.212;2023-04-09T01:26:57;13;13;
76661;PMS5003;65579;45.534;6.212;2023-04-09T01:29:22;12;12;
76661;PMS5003;65579;45.534;6.212;2023-04-09T01:31:48;10;10;
76661;PMS5003;65579;45.534;6.212;2023-04-09T01:34:13;11;10;
76661;PMS5003;65579;45.534;6.212;2023-04-09T01:36:38;16;15;
76661;PMS5003;65579;45.534;6.212;2023-04-09T01:39:03;6;6;
76661;PMS5003;65579;45.534;6.212;2023-04-09T01:41:30;9;9;
76661;PMS5003;65579;45.534;6.212;2023-04-09T01:43:54;11;9;
76661;PMS5003;65579;45.534;6.212;2023-04-09T01:46:20;11;9;
76661;PMS5003;65579;45.534;6.212;2023-04-09T01:48:45;7;6;
76661;PMS5003;65579;45.534;6.212;2023-04-09T01:51:11;10;10;
76661;PMS5003;65579;45.534;6.212;2023-04-09T01:53:36;11;11;
76661;PMS5003;65579;45.534;6.212;2023-04-09T01:56:01;10;10;
76661;PMS5003;65579;45.534;6.212;2023-04-09T01:58:27;10;7;
76661;PMS5003;65579;45.534;6.212;2023-04-09T02:00:54;9;9;
76661;PMS5003;65579;45.534;6.212;2023-04-09T02:03:19;9;9;
76661;PMS5003;65579;45.534;6.212;2023-04-09T02:05:43;7;7;
76661;PMS5003;65579;45.534;6.212;2023-04-09T02:08:09;13;9;
76661;PMS5003;65579;45.534;6.212;2023-04-09T02:10:34;10;9;
76661;PMS5003;65579;45.534;6.212;2023-04-09T02:12:59;12;12;
76661;PMS5003;65579;45.534;6.212;2023-04-09T02:15:25;11;11;
76661;PMS5003;65579;45.534;6.212;2023-04-09T02:17:50;20;16;
76661;PMS5003;65579;45.534;6.212;2023-04-09T02:20:16;10;10;
76661;PMS5003;65579;45.534;6.212;2023-04-09T02:22:41;14;12;
76661;PMS5003;65579;45.534;6.212;2023-04-09T02:25:06;9;9;
76661;PMS5003;65579;45.534;6.212;2023-04-09T02:27:32;12;12;
76661;PMS5003;65579;45.534;6.212;2023-04-09T02:29:57;10;10;
76661;PMS5003;65579;45.534;6.212;2023-04-09T02:32:22;17;14;
76661;PMS5003;65579;45.534;6.212;2023-04-09T02:34:47;13;11;
76661;PMS5003;65579;45.534;6.212;2023-04-09T02:37:13;10;9;
76661;PMS5003;65579;45.534;6.212;2023-04-09T02:39:38;10;10;
76661;PMS5003;65579;45.534;6.212;2023-04-09T02:42:03;11;10;
76661;PMS5003;65579;45.534;6.212;2023-04-09T02:44:29;11;10;
76661;PMS5003;65579;45.534;6.212;2023-04-09T02:46:54;11;10;
76661;PMS5003;65579;45.534;6.212;2023-04-09T02:49:20;11;10;
76661;PMS5003;65579;45.534;6.212;2023-04-09T02:51:45;12;10;
76661;PMS5003;65579;45.534;6.212;2023-04-09T02:54:11;8;8;
76661;PMS5003;65579;45.534;6.212;2023-04-09T02:56:36;10;9;
76661;PMS5003;65579;45.534;6.212;2023-04-09T02:59:02;9;9;
76661;PMS5003;65579;45.534;6.212;2023-04-09T03:01:27;8;8;
76661;PMS5003;65579;45.534;6.212;2023-04-09T03:03:53;11;9;
76661;PMS5003;65579;45.534;6.212;2023-04-09T03:06:18;11;11;
76661;PMS5003;65579;45.534;6.212;2023-04-09T03:08:44;9;9;
76661;PMS5003;65579;45.534;6.212;2023-04-09T03:11:09;8;8;
76661;PMS5003;65579;45.534;6.212;2023-04-09T03:13:35;6;6;
76661;PMS5003;65579;45.534;6.212;2023-04-09T03:16:00;10;9;
76661;PMS5003;65579;45.534;6.212;2023-04-09T03:18:26;8;8;
76661;PMS5003;65579;45.534;6.212;2023-04-09T03:20:51;11;11;
76661;PMS5003;65579;45.534;6.212;2023-04-09T03:23:17;10;10;
76661;PMS5003;65579;45.534;6.212;2023-04-09T03:25:42;8;8;
76661;PMS5003;65579;45.534;6.212;2023-04-09T03:28:08;11;11;
76661;PMS5003;65579;45.534;6.212;2023-04-09T03:30:33;8;8;
76661;PMS5003;65579;45.534;6.212;2023-04-09T03:32:59;12;12;
76661;PMS5003;65579;45.534;6.212;2023-04-09T03:35:24;10;10;
76661;PMS5003;65579;45.534;6.212;2023-04-09T03:37:50;11;11;
76661;PMS5003;65579;45.534;6.212;2023-04-09T03:40:15;9;9;
76661;PMS5003;65579;45.534;6.212;2023-04-09T03:42:41;8;8;
76661;PMS5003;65579;45.534;6.212;2023-04-09T03:45:06;8;8;
76661;PMS5003;65579;45.534;6.212;2023-04-09T03:47:32;16;11;
76661;PMS5003;65579;45.534;6.212;2023-04-09T03:49:57;8;8;
76661;PMS5003;65579;45.534;6.212;2023-04-09T03:52:23;14;10;
76661;PMS5003;65579;45.534;6.212;2023-04-09T03:54:48;10;10;
76661;PMS5003;65579;45.534;6.212;2023-04-09T03:57:14;10;9;
76661;PMS5003;65579;45.534;6.212;2023-04-09T03:59:39;12;11;
76661;PMS5003;65579;45.534;6.212;2023-04-09T04:02:05;11;10;
76661;PMS5003;65579;45.534;6.212;2023-04-09T04:04:30;10;10;
76661;PMS5003;65579;45.534;6.212;2023-04-09T04:06:56;14;11;
76661;PMS5003;65579;45.534;6.212;2023-04-09T04:09:22;9;9;
76661;PMS5003;65579;45.534;6.212;2023-04-09T04:11:47;11;11;
76661;PMS5003;65579;45.534;6.212;2023-04-09T04:14:12;11;10;
76661;PMS5003;65579;45.534;6.212;2023-04-09T04:16:39;11;9;
76661;PMS5003;65579;45.534;6.212;2023-04-09T04:19:04;12;10;
76661;PMS5003;65579;45.534;6.212;2023-04-09T04:21:32;11;9;
76661;PMS5003;65579;45.534;6.212;2023-04-09T04:23:56;9;7;
76661;PMS5003;65579;45.534;6.212;2023-04-09T04:26:22;8;8;
76661;PMS5003;65579;45.534;6.212;2023-04-09T04:28:47;8;8;
76661;PMS5003;65579;45.534;6.212;2023-04-09T04:31:12;9;9;
76661;PMS5003;65579;45.534;6.212;2023-04-09T04:33:37;8;8;
76661;PMS5003;65579;45.534;6.212;2023-04-09T04:36:04;8;8;
76661;PMS5003;65579;45.534;6.212;2023-04-09T04:38:27;10;10;
76661;PMS5003;65579;45.534;6.212;2023-04-09T04:40:53;12;12;
76661;PMS5003;65579;45.534;6.212;2023-04-09T04:43:18;10;8;
76661;PMS5003;65579;45.534;6.212;2023-04-09T04:45:44;8;8;
76661;PMS5003;65579;45.534;6.212;2023-04-09T04:48:09;15;11;
76661;PMS5003;65579;45.534;6.212;2023-04-09T04:50:35;17;16;
76661;PMS5003;65579;45.534;6.212;2023-04-09T04:53:01;10;9;
76661;PMS5003;65579;45.534;6.212;2023-04-09T04:55:26;10;10;
76661;PMS5003;65579;45.534;6.212;2023-04-09T04:57:52;10;10;
76661;PMS5003;65579;45.534;6.212;2023-04-09T05:00:17;11;10;
76661;PMS5003;65579;45.534;6.212;2023-04-09T05:02:43;11;11;
76661;PMS5003;65579;45.534;6.212;2023-04-09T05:05:08;13;11;
76661;PMS5003;65579;45.534;6.212;2023-04-09T05:07:35;10;10;
76661;PMS5003;65579;45.534;6.212;2023-04-09T05:10:00;8;8;
76661;PMS5003;65579;45.534;6.212;2023-04-09T05:12:25;10;10;
76661;PMS5003;65579;45.534;6.212;2023-04-09T05:14:51;10;9;
76661;PMS5003;65579;45.534;6.212;2023-04-09T05:17:16;9;9;
76661;PMS5003;65579;45.534;6.212;2023-04-09T05:19:42;11;11;
76661;PMS5003;65579;45.534;6.212;2023-04-09T05:22:07;8;8;
76661;PMS5003;65579;45.534;6.212;2023-04-09T05:24:33;9;8;
76661;PMS5003;65579;45.534;6.212;2023-04-09T05:26:58;9;9;
76661;PMS5003;65579;45.534;6.212;2023-04-09T05:29:24;9;9;
76661;PMS5003;65579;45.534;6.212;2023-04-09T05:31:49;15;13;
76661;PMS5003;65579;45.534;6.212;2023-04-09T05:39:07;33;30;
76661;PMS5003;65579;45.534;6.212;2023-04-09T05:41:34;23;22;
76661;PMS5003;65579;45.534;6.212;2023-04-09T05:43:57;16;16;
76661;PMS5003;65579;45.534;6.212;2023-04-09T05:46:23;21;17;
76661;PMS5003;65579;45.534;6.212;2023-04-09T05:48:48;60;59;
76661;PMS5003;65579;45.534;6.212;2023-04-09T05:51:14;58;54;
76661;PMS5003;65579;45.534;6.212;2023-04-09T05:53:39;72;65;
76661;PMS5003;65579;45.534;6.212;2023-04-09T05:58:31;30;27;
76661;PMS5003;65579;45.534;6.212;2023-04-09T06:00:57;18;18;
76661;PMS5003;65579;45.534;6.212;2023-04-09T06:03:22;12;12;
76661;PMS5003;65579;45.534;6.212;2023-04-09T06:05:48;13;13;
76661;PMS5003;65579;45.534;6.212;2023-04-09T06:08:14;22;21;
76661;PMS5003;65579;45.534;6.212;2023-04-09T06:10:39;17;16;
76661;PMS5003;65579;45.534;6.212;2023-04-09T06:13:04;24;23;
76661;PMS5003;65579;45.534;6.212;2023-04-09T06:15:30;27;26;
76661;PMS5003;65579;45.534;6.212;2023-04-09T06:17:55;23;22;
76661;PMS5003;65579;45.534;6.212;2023-04-09T06:20:20;22;22;
76661;PMS5003;65579;45.534;6.212;2023-04-09T06:22:48;23;22;
76661;PMS5003;65579;45.534;6.212;2023-04-09T06:25:12;30;22;
76661;PMS5003;65579;45.534;6.212;2023-04-09T06:30:03;24;24;
76661;PMS5003;65579;45.534;6.212;2023-04-09T06:32:27;19;19;
76661;PMS5003;65579;45.534;6.212;2023-04-09T06:34:53;15;15;
76661;PMS5003;65579;45.534;6.212;2023-04-09T06:37:19;22;22;
76661;PMS5003;65579;45.534;6.212;2023-04-09T06:39:44;27;23;
76661;PMS5003;65579;45.534;6.212;2023-04-09T06:42:09;17;17;
76661;PMS5003;65579;45.534;6.212;2023-04-09T06:44:35;17;12;
76661;PMS5003;65579;45.534;6.212;2023-04-09T06:47:00;12;12;
76661;PMS5003;65579;45.534;6.212;2023-04-09T06:49:26;15;15;
76661;PMS5003;65579;45.534;6.212;2023-04-09T06:51:51;17;13;
76661;PMS5003;65579;45.534;6.212;2023-04-09T06:54:17;14;14;
76661;PMS5003;65579;45.534;6.212;2023-04-09T06:56:43;15;15;
76661;PMS5003;65579;45.534;6.212;2023-04-09T06:59:08;27;22;
76661;PMS5003;65579;45.534;6.212;2023-04-09T07:01:34;14;14;
76661;PMS5003;65579;45.534;6.212;2023-04-09T07:04:02;14;12;
76661;PMS5003;65579;45.534;6.212;2023-04-09T07:06:24;16;16;
76661;PMS5003;65579;45.534;6.212;2023-04-09T07:13:42;15;15;
76661;PMS5003;65579;45.534;6.212;2023-04-09T07:20:58;12;12;
76661;PMS5003;65579;45.534;6.212;2023-04-09T07:23:24;12;12;
76661;PMS5003;65579;45.534;6.212;2023-04-09T07:37:56;6;6;
76661;PMS5003;65579;45.534;6.212;2023-04-09T07:40:22;7;7;
76661;PMS5003;65579;45.534;6.212;2023-04-09T07:42:46;7;7;
76661;PMS5003;65579;45.534;6.212;2023-04-09T07:45:11;7;7;
76661;PMS5003;65579;45.534;6.212;2023-04-09T07:47:37;12;9;
76661;PMS5003;65579;45.534;6.212;2023-04-09T07:50:02;12;11;
76661;PMS5003;65579;45.534;6.212;2023-04-09T07:52:28;13;13;
76661;PMS5003;65579;45.534;6.212;2023-04-09T07:54:53;10;10;
76661;PMS5003;65579;45.534;6.212;2023-04-09T07:57:19;11;11;
76661;PMS5003;65579;45.534;6.212;2023-04-09T07:59:44;11;10;
76661;PMS5003;65579;45.534;6.212;2023-04-09T08:02:09;9;9;
76661;PMS5003;65579;45.534;6.212;2023-04-09T08:04:35;18;14;
76661;PMS5003;65579;45.534;6.212;2023-04-09T08:07:00;16;14;
76661;PMS5003;65579;45.534;6.212;2023-04-09T08:09:25;11;11;
76661;PMS5003;65579;45.534;6.212;2023-04-09T08:11:51;10;8;
76661;PMS5003;65579;45.534;6.212;2023-04-09T08:14:17;10;8;
76661;PMS5003;65579;45.534;6.212;2023-04-09T08:16:43;10;10;
76661;PMS5003;65579;45.534;6.212;2023-04-09T08:19:07;11;11;
76661;PMS5003;65579;45.534;6.212;2023-04-09T08:21:32;7;7;
76661;PMS5003;65579;45.534;6.212;2023-04-09T08:23:58;9;9;
76661;PMS5003;65579;45.534;6.212;2023-04-09T08:26:23;18;17;
76661;PMS5003;65579;45.534;6.212;2023-04-09T08:28:49;12;9;
76661;PMS5003;65579;45.534;6.212;2023-04-09T08:31:14;8;8;
76661;PMS5003;65579;45.534;6.212;2023-04-09T08:33:39;13;12;
76661;PMS5003;65579;45.534;6.212;2023-04-09T08:36:07;16;15;
76661;PMS5003;65579;45.534;6.212;2023-04-09T08:38:30;22;17;
76661;PMS5003;65579;45.534;6.212;2023-04-09T08:40:55;14;14;
76661;PMS5003;65579;45.534;6.212;2023-04-09T08:43:21;24;21;
76661;PMS5003;65579;45.534;6.212;2023-04-09T08:45:46;17;16;
76661;PMS5003;65579;45.534;6.212;2023-04-09T08:48:12;19;16;
76661;PMS5003;65579;45.534;6.212;2023-04-09T08:50:37;17;16;
76661;PMS5003;65579;45.534;6.212;2023-04-09T08:53:02;14;14;
76661;PMS5003;65579;45.534;6.212;2023-04-09T08:55:28;15;15;
76661;PMS5003;65579;45.534;6.212;2023-04-09T08:57:53;20;14;
76661;PMS5003;65579;45.534;6.212;2023-04-09T09:00:18;11;11;
76661;PMS5003;65579;45.534;6.212;2023-04-09T09:05:08;12;10;
76661;PMS5003;65579;45.534;6.212;2023-04-09T09:07:34;11;11;
76661;PMS5003;65579;45.534;6.212;2023-04-09T09:10:00;19;19;
76661;PMS5003;65579;45.534;6.212;2023-04-09T09:12:29;11;10;
76661;PMS5003;65579;45.534;6.212;2023-04-09T09:14:50;13;13;
76661;PMS5003;65579;45.534;6.212;2023-04-09T09:17:15;13;13;
76661;PMS5003;65579;45.534;6.212;2023-04-09T09:19:40;13;11;
76661;PMS5003;65579;45.534;6.212;2023-04-09T09:22:06;15;15;
76661;PMS5003;65579;45.534;6.212;2023-04-09T09:24:31;20;19;
76661;PMS5003;65579;45.534;6.212;2023-04-09T09:26:57;11;11;
76661;PMS5003;65579;45.534;6.212;2023-04-09T09:29:23;11;11;
76661;PMS5003;65579;45.534;6.212;2023-04-09T09:31:49;13;11;
76661;PMS5003;65579;45.534;6.212;2023-04-09T09:34:13;14;14;
76661;PMS5003;65579;45.534;6.212;2023-04-09T09:36:39;21;18;
76661;PMS5003;65579;45.534;6.212;2023-04-09T09:39:04;10;10;
76661;PMS5003;65579;45.534;6.212;2023-04-09T09:41:29;20;15;
76661;PMS5003;65579;45.534;6.212;2023-04-09T09:43:54;13;9;
76661;PMS5003;65579;45.534;6.212;2023-04-09T09:46:20;9;9;
76661;PMS5003;65579;45.534;6.212;2023-04-09T09:48:45;11;11;
76661;PMS5003;65579;45.534;6.212;2023-04-09T09:51:10;10;8;
76661;PMS5003;65579;45.534;6.212;2023-04-09T09:53:36;14;14;
76661;PMS5003;65579;45.534;6.212;2023-04-09T09:56:00;13;11;
76661;PMS5003;65579;45.534;6.212;2023-04-09T09:58:26;11;11;
76661;PMS5003;65579;45.534;6.212;2023-04-09T10:00:51;9;8;
76661;PMS5003;65579;45.534;6.212;2023-04-09T10:03:19;9;8;
76661;PMS5003;65579;45.534;6.212;2023-04-09T10:05:42;11;11;
76661;PMS5003;65579;45.534;6.212;2023-04-09T10:08:07;7;7;
76661;PMS5003;65579;45.534;6.212;2023-04-09T10:10:33;9;8;
76661;PMS5003;65579;45.534;6.212;2023-04-09T10:12:58;10;8;
76661;PMS5003;65579;45.534;6.212;2023-04-09T10:15:23;10;9;
76661;PMS5003;65579;45.534;6.212;2023-04-09T10:17:51;12;12;
76661;PMS5003;65579;45.534;6.212;2023-04-09T10:20:16;14;14;
76661;PMS5003;65579;45.534;6.212;2023-04-09T10:22:39;11;10;
76661;PMS5003;65579;45.534;6.212;2023-04-09T10:25:05;10;10;
76661;PMS5003;65579;45.534;6.212;2023-04-09T10:27:30;10;10;
76661;PMS5003;65579;45.534;6.212;2023-04-09T10:29:56;16;15;
76661;PMS5003;65579;45.534;6.212;2023-04-09T10:32:22;11;11;
76661;PMS5003;65579;45.534;6.212;2023-04-09T10:34:48;11;11;
76661;PMS5003;65579;45.534;6.212;2023-04-09T10:37:13;14;12;
76661;PMS5003;65579;45.534;6.212;2023-04-09T10:39:38;8;8;
76661;PMS5003;65579;45.534;6.212;2023-04-09T10:42:06;10;9;
76661;PMS5003;65579;45.534;6.212;2023-04-09T10:44:28;8;8;
76661;PMS5003;65579;45.534;6.212;2023-04-09T10:46:54;11;11;
76661;PMS5003;65579;45.534;6.212;2023-04-09T10:49:19;12;11;
76661;PMS5003;65579;45.534;6.212;2023-04-09T10:51:49;12;12;
76661;PMS5003;65579;45.534;6.212;2023-04-09T10:56:35;13;12;
76661;PMS5003;65579;45.534;6.212;2023-04-09T10:59:00;14;11;
76661;PMS5003;65579;45.534;6.212;2023-04-09T11:01:25;9;9;
76661;PMS5003;65579;45.534;6.212;2023-04-09T11:06:16;16;13;
76661;PMS5003;65579;45.534;6.212;2023-04-09T11:08:42;9;9;
76661;PMS5003;65579;45.534;6.212;2023-04-09T11:11:08;11;11;
76661;PMS5003;65579;45.534;6.212;2023-04-09T11:13:33;10;10;
76661;PMS5003;65579;45.534;6.212;2023-04-09T11:15:58;8;8;
76661;PMS5003;65579;45.534;6.212;2023-04-09T11:18:24;7;7;
76661;PMS5003;65579;45.534;6.212;2023-04-09T11:20:49;7;7;
76661;PMS5003;65579;45.534;6.212;2023-04-09T11:23:14;5;5;
76661;PMS5003;65579;45.534;6.212;2023-04-09T11:25:39;9;9;
76661;PMS5003;65579;45.534;6.212;2023-04-09T11:28:05;12;11;
76661;PMS5003;65579;45.534;6.212;2023-04-09T11:30:29;7;7;
76661;PMS5003;65579;45.534;6.212;2023-04-09T11:32:56;8;8;
76661;PMS5003;65579;45.534;6.212;2023-04-09T11:35:21;8;6;
76661;PMS5003;65579;45.534;6.212;2023-04-09T11:37:46;6;5;
76661;PMS5003;65579;45.534;6.212;2023-04-09T11:40:15;10;8;
76661;PMS5003;65579;45.534;6.212;2023-04-09T11:42:37;12;11;
76661;PMS5003;65579;45.534;6.212;2023-04-09T11:45:02;9;9;
76661;PMS5003;65579;45.534;6.212;2023-04-09T11:47:27;7;7;
76661;PMS5003;65579;45.534;6.212;2023-04-09T11:49:52;12;11;
76661;PMS5003;65579;45.534;6.212;2023-04-09T11:52:18;12;10;
76661;PMS5003;65579;45.534;6.212;2023-04-09T11:54:47;13;12;
76661;PMS5003;65579;45.534;6.212;2023-04-09T11:57:09;7;7;
76661;PMS5003;65579;45.534;6.212;2023-04-09T11:59:36;7;7;
76661;PMS5003;65579;45.534;6.212;2023-04-09T12:01:59;5;5;
76661;PMS5003;65579;45.534;6.212;2023-04-09T12:04:24;9;7;
76661;PMS5003;65579;45.534;6.212;2023-04-09T12:06:49;8;8;
76661;PMS5003;65579;45.534;6.212;2023-04-09T12:09:14;9;9;
76661;PMS5003;65579;45.534;6.212;2023-04-09T12:11:41;6;6;
76661;PMS5003;65579;45.534;6.212;2023-04-09T12:14:06;6;6;
76661;PMS5003;65579;45.534;6.212;2023-04-09T12:16:31;7;7;
76661;PMS5003;65579;45.534;6.212;2023-04-09T12:18:56;7;7;
76661;PMS5003;65579;45.534;6.212;2023-04-09T12:21:23;5;5;
76661;PMS5003;65579;45.534;6.212;2023-04-09T12:23:46;6;6;
76661;PMS5003;65579;45.534;6.212;2023-04-09T12:26:11;8;8;
76661;PMS5003;65579;45.534;6.212;2023-04-09T12:28:37;3;3;
76661;PMS5003;65579;45.534;6.212;2023-04-09T12:31:02;5;5;
76661;PMS5003;65579;45.534;6.212;2023-04-09T12:33:27;3;3;
76661;PMS5003;65579;45.534;6.212;2023-04-09T12:35:52;2;2;
76661;PMS5003;65579;45.534;6.212;2023-04-09T12:38:17;5;3;
76661;PMS5003;65579;45.534;6.212;2023-04-09T12:40:43;7;7;
76661;PMS5003;65579;45.534;6.212;2023-04-09T12:43:07;6;6;
76661;PMS5003;65579;45.534;6.212;2023-04-09T12:45:33;5;5;
76661;PMS5003;65579;45.534;6.212;2023-04-09T12:47:58;4;4;
76661;PMS5003;65579;45.534;6.212;2023-04-09T12:50:24;3;3;
76661;PMS5003;65579;45.534;6.212;2023-04-09T12:52:48;5;5;
76661;PMS5003;65579;45.534;6.212;2023-04-09T12:55:14;3;3;
76661;PMS5003;65579;45.534;6.212;2023-04-09T12:57:41;6;5;
76661;PMS5003;65579;45.534;6.212;2023-04-09T13:00:05;4;4;
76661;PMS5003;65579;45.534;6.212;2023-04-09T13:02:29;6;6;
76661;PMS5003;65579;45.534;6.212;2023-04-09T13:04:54;4;4;
76661;PMS5003;65579;45.534;6.212;2023-04-09T13:07:19;5;5;
76661;PMS5003;65579;45.534;6.212;2023-04-09T13:09:44;8;7;
76661;PMS5003;65579;45.534;6.212;2023-04-09T13:12:09;5;5;
76661;PMS5003;65579;45.534;6.212;2023-04-09T13:14:37;7;7;
76661;PMS5003;65579;45.534;6.212;2023-04-09T13:17:00;4;4;
76661;PMS5003;65579;45.534;6.212;2023-04-09T13:19:26;4;4;
76661;PMS5003;65579;45.534;6.212;2023-04-09T13:21:51;5;5;
76661;PMS5003;65579;45.534;6.212;2023-04-09T13:24:16;5;5;
76661;PMS5003;65579;45.534;6.212;2023-04-09T13:26:41;6;6;
76661;PMS5003;65579;45.534;6.212;2023-04-09T13:29:06;4;4;
76661;PMS5003;65579;45.534;6.212;2023-04-09T13:31:32;4;4;
76661;PMS5003;65579;45.534;6.212;2023-04-09T13:33:56;3;3;
76661;PMS5003;65579;45.534;6.212;2023-04-09T13:36:21;5;4;
76661;PMS5003;65579;45.534;6.212;2023-04-09T13:38:47;4;4;
76661;PMS5003;65579;45.534;6.212;2023-04-09T13:41:12;4;4;
76661;PMS5003;65579;45.534;6.212;2023-04-09T13:43:37;4;4;
76661;PMS5003;65579;45.534;6.212;2023-04-09T13:46:02;3;3;
76661;PMS5003;65579;45.534;6.212;2023-04-09T13:48:27;5;5;
76661;PMS5003;65579;45.534;6.212;2023-04-09T13:50:52;4;4;
76661;PMS5003;65579;45.534;6.212;2023-04-09T13:53:18;5;5;
76661;PMS5003;65579;45.534;6.212;2023-04-09T13:55:42;7;6;
76661;PMS5003;65579;45.534;6.212;2023-04-09T13:58:07;6;6;
76661;PMS5003;65579;45.534;6.212;2023-04-09T14:00:33;3;3;
76661;PMS5003;65579;45.534;6.212;2023-04-09T14:02:58;3;3;
76661;PMS5003;65579;45.534;6.212;2023-04-09T14:05:23;5;5;
76661;PMS5003;65579;45.534;6.212;2023-04-09T14:07:48;5;5;
76661;PMS5003;65579;45.534;6.212;2023-04-09T14:10:13;3;3;
76661;PMS5003;65579;45.534;6.212;2023-04-09T14:12:38;6;6;
76661;PMS5003;65579;45.534;6.212;2023-04-09T14:15:05;7;5;
76661;PMS5003;65579;45.534;6.212;2023-04-09T14:17:29;5;5;
76661;PMS5003;65579;45.534;6.212;2023-04-09T14:19:54;4;4;
76661;PMS5003;65579;45.534;6.212;2023-04-09T14:22:19;3;3;
76661;PMS5003;65579;45.534;6.212;2023-04-09T14:24:45;4;4;
76661;PMS5003;65579;45.534;6.212;2023-04-09T14:27:10;4;4;
76661;PMS5003;65579;45.534;6.212;2023-04-09T14:29:35;4;4;
76661;PMS5003;65579;45.534;6.212;2023-04-09T14:32:00;4;4;
76661;PMS5003;65579;45.534;6.212;2023-04-09T14:34:25;5;5;
76661;PMS5003;65579;45.534;6.212;2023-04-09T14:36:50;6;5;
76661;PMS5003;65579;45.534;6.212;2023-04-09T14:39:16;5;5;
76661;PMS5003;65579;45.534;6.212;2023-04-09T14:41:43;6;5;
76661;PMS5003;65579;45.534;6.212;2023-04-09T14:44:06;5;3;
76661;PMS5003;65579;45.534;6.212;2023-04-09T14:46:31;5;5;
76661;PMS5003;65579;45.534;6.212;2023-04-09T14:48:56;5;5;
76661;PMS5003;65579;45.534;6.212;2023-04-09T14:51:21;4;4;
76661;PMS5003;65579;45.534;6.212;2023-04-09T14:53:46;3;3;
76661;PMS5003;65579;45.534;6.212;2023-04-09T14:56:11;6;5;
76661;PMS5003;65579;45.534;6.212;2023-04-09T14:58:36;4;2;
76661;PMS5003;65579;45.534;6.212;2023-04-09T15:01:01;5;3;
76661;PMS5003;65579;45.534;6.212;2023-04-09T15:03:26;3;3;
76661;PMS5003;65579;45.534;6.212;2023-04-09T15:05:52;1;1;
76661;PMS5003;65579;45.534;6.212;2023-04-09T15:08:16;3;3;
76661;PMS5003;65579;45.534;6.212;2023-04-09T15:10:41;6;4;
76661;PMS5003;65579;45.534;6.212;2023-04-09T15:13:06;4;3;
76661;PMS5003;65579;45.534;6.212;2023-04-09T15:15:32;4;4;
76661;PMS5003;65579;45.534;6.212;2023-04-09T15:17:57;5;5;
76661;PMS5003;65579;45.534;6.212;2023-04-09T15:20:22;4;4;
76661;PMS5003;65579;45.534;6.212;2023-04-09T15:22:47;6;6;
76661;PMS5003;65579;45.534;6.212;2023-04-09T15:25:12;5;5;
76661;PMS5003;65579;45.534;6.212;2023-04-09T15:27:37;5;5;
76661;PMS5003;65579;45.534;6.212;2023-04-09T15:30:02;4;4;
76661;PMS5003;65579;45.534;6.212;2023-04-09T15:32:27;5;5;
76661;PMS5003;65579;45.534;6.212;2023-04-09T15:34:52;4;4;
76661;PMS5003;65579;45.534;6.212;2023-04-09T15:37:17;4;4;
76661;PMS5003;65579;45.534;6.212;2023-04-09T15:39:42;5;3;
76661;PMS5003;65579;45.534;6.212;2023-04-09T15:42:08;3;3;
76661;PMS5003;65579;45.534;6.212;2023-04-09T15:44:33;6;5;
76661;PMS5003;65579;45.534;6.212;2023-04-09T15:46:58;5;5;
76661;PMS5003;65579;45.534;6.212;2023-04-09T15:49:23;5;5;
76661;PMS5003;65579;45.534;6.212;2023-04-09T15:51:48;8;7;
76661;PMS5003;65579;45.534;6.212;2023-04-09T15:54:13;4;4;
76661;PMS5003;65579;45.534;6.212;2023-04-09T15:56:38;5;5;
76661;PMS5003;65579;45.534;6.212;2023-04-09T15:59:03;3;3;
76661;PMS5003;65579;45.534;6.212;2023-04-09T16:01:28;4;4;
76661;PMS5003;65579;45.534;6.212;2023-04-09T16:03:53;4;2;
76661;PMS5003;65579;45.534;6.212;2023-04-09T16:06:18;5;5;
76661;PMS5003;65579;45.534;6.212;2023-04-09T16:08:43;6;6;
76661;PMS5003;65579;45.534;6.212;2023-04-09T16:11:08;5;5;
76661;PMS5003;65579;45.534;6.212;2023-04-09T16:13:33;4;4;
76661;PMS5003;65579;45.534;6.212;2023-04-09T16:15:58;4;4;
76661;PMS5003;65579;45.534;6.212;2023-04-09T16:18:24;5;5;
76661;PMS5003;65579;45.534;6.212;2023-04-09T16:20:51;4;4;
76661;PMS5003;65579;45.534;6.212;2023-04-09T16:23:13;5;5;
76661;PMS5003;65579;45.534;6.212;2023-04-09T16:25:38;6;6;
76661;PMS5003;65579;45.534;6.212;2023-04-09T16:28:04;4;4;
76661;PMS5003;65579;45.534;6.212;2023-04-09T16:30:29;4;4;
76661;PMS5003;65579;45.534;6.212;2023-04-09T16:32:54;4;4;
76661;PMS5003;65579;45.534;6.212;2023-04-09T16:35:19;5;5;
76661;PMS5003;65579;45.534;6.212;2023-04-09T16:37:44;4;4;
76661;PMS5003;65579;45.534;6.212;2023-04-09T16:40:09;6;6;
76661;PMS5003;65579;45.534;6.212;2023-04-09T16:42:34;5;5;
76661;PMS5003;65579;45.534;6.212;2023-04-09T16:44:59;6;6;
76661;PMS5003;65579;45.534;6.212;2023-04-09T16:47:24;6;5;
76661;PMS5003;65579;45.534;6.212;2023-04-09T16:49:49;7;6;
76661;PMS5003;65579;45.534;6.212;2023-04-09T17:30:57;7;7;
76661;PMS5003;65579;45.534;6.212;2023-04-09T17:33:24;4;4;
76661;PMS5003;65579;45.534;6.212;2023-04-09T17:35:47;5;5;
76661;PMS5003;65579;45.534;6.212;2023-04-09T17:38:12;5;5;
76661;PMS5003;65579;45.534;6.212;2023-04-09T17:40:37;5;5;